createdAt,value
2018-03-22T00:03:56.537Z,6.27
2018-03-22T00:08:59.011Z,6.80
2018-03-22T00:14:01.535Z,6.60
2018-03-22T00:19:04.049Z,6.07
2018-03-22T00:24:06.519Z,7.20
2018-03-22T00:29:09.000Z,7.23
2018-03-22T00:34:11.527Z,7.50
2018-03-22T00:39:14.151Z,8.07
2018-03-22T00:44:16.633Z,7.40
2018-03-22T00:49:19.184Z,7.63
2018-03-22T00:54:21.691Z,6.83
2018-03-22T00:59:24.192Z,8.20
2018-03-22T01:04:26.648Z,8.57
2018-03-22T01:09:29.117Z,7.37
2018-03-22T01:14:31.589Z,8.03
2018-03-22T01:19:34.066Z,7.63
2018-03-22T01:24:37.422Z,8.47
2018-03-22T01:29:40.035Z,8.73
2018-03-22T01:34:42.674Z,9.23
2018-03-22T01:39:46.094Z,8.90
2018-03-22T01:44:48.585Z,8.27
2018-03-22T01:49:51.068Z,8.63
2018-03-22T01:54:53.555Z,8.93
2018-03-22T01:59:56.006Z,9.33
2018-03-22T02:04:58.476Z,8.60
2018-03-22T02:10:00.990Z,9.20
2018-03-22T02:15:03.436Z,9.63
2018-03-22T02:20:05.920Z,8.77
2018-03-22T02:25:08.393Z,8.97
2018-03-22T02:30:10.860Z,9.33
2018-03-22T02:35:13.338Z,9.10
2018-03-22T02:40:16.215Z,10.63
2018-03-22T02:45:18.792Z,10.67
2018-03-22T02:50:21.308Z,9.00
2018-03-22T02:55:23.793Z,9.70
2018-03-22T03:00:26.324Z,9.43
2018-03-22T03:05:28.751Z,8.87
2018-03-22T03:10:31.193Z,9.83
2018-03-22T03:15:33.655Z,9.17
2018-03-22T03:20:36.127Z,9.20
2018-03-22T03:25:38.602Z,10.00
2018-03-22T03:30:41.056Z,9.87
2018-03-22T03:35:43.620Z,10.20
2018-03-22T03:40:46.152Z,11.47
2018-03-22T03:45:48.921Z,10.57
2018-03-22T03:50:51.558Z,11.37
2018-03-22T03:55:54.049Z,10.73
2018-03-22T04:00:56.512Z,11.07
2018-03-22T04:05:58.980Z,11.50
2018-03-22T04:11:01.534Z,11.53
2018-03-22T04:16:04.016Z,11.73
2018-03-22T04:21:06.488Z,12.20
2018-03-22T04:26:08.941Z,10.57
2018-03-22T04:31:11.422Z,11.73
2018-03-22T04:36:14.194Z,11.60
2018-03-22T04:41:16.752Z,11.60
2018-03-22T04:46:19.243Z,12.77
2018-03-22T04:51:21.744Z,11.80
2018-03-22T04:56:24.219Z,12.03
2018-03-22T05:01:26.718Z,12.30
2018-03-22T05:06:29.195Z,12.77
2018-03-22T05:11:31.679Z,13.90
2018-03-22T05:16:34.167Z,15.20
2018-03-22T05:21:36.685Z,14.37
2018-03-22T05:26:39.154Z,13.43
2018-03-22T05:31:41.680Z,14.20
2018-03-22T05:36:44.173Z,16.47
2018-03-22T05:41:46.781Z,16.27
2018-03-22T05:46:49.298Z,16.90
2018-03-22T05:51:51.952Z,17.60
2018-03-22T05:56:54.428Z,17.33
2018-03-22T06:01:56.914Z,16.07
2018-03-22T06:06:59.408Z,16.53
2018-03-22T06:12:01.967Z,15.90
2018-03-22T06:17:04.916Z,16.27
2018-03-22T06:22:07.514Z,14.97
2018-03-22T06:27:09.998Z,15.83
2018-03-22T06:32:12.497Z,15.23
2018-03-22T06:37:15.001Z,16.90
2018-03-22T06:42:17.516Z,16.20
2018-03-22T06:47:20.064Z,16.00
2018-03-22T06:52:22.601Z,15.57
2018-03-22T06:57:25.277Z,14.73
2018-03-22T07:02:27.769Z,13.17
2018-03-22T07:07:30.243Z,14.73
2018-03-22T07:12:32.715Z,15.90
2018-03-22T07:17:35.235Z,14.93
2018-03-22T07:22:37.725Z,15.30
2018-03-22T07:27:40.196Z,16.00
2018-03-22T07:32:42.655Z,17.33
2018-03-22T07:37:45.952Z,15.90
2018-03-22T07:42:53.985Z,16.07
2018-03-22T07:47:56.451Z,14.03
2018-03-22T07:52:58.915Z,13.83
2018-03-22T07:58:01.499Z,12.73
2018-03-22T08:03:03.977Z,12.60
2018-03-22T08:08:06.488Z,13.43
2018-03-22T08:13:08.995Z,11.37
2018-03-22T08:18:11.468Z,14.83
2018-03-22T08:23:13.956Z,14.60
2018-03-22T08:28:16.516Z,17.80
2018-03-22T08:33:19.097Z,17.83
2018-03-22T08:38:21.650Z,18.53
2018-03-22T08:43:24.182Z,20.50
2018-03-22T08:48:26.664Z,22.40
2018-03-22T08:53:29.147Z,21.33
2018-03-22T08:58:31.646Z,22.13
2018-03-22T09:03:34.151Z,21.07
2018-03-22T09:08:36.846Z,23.60
2018-03-22T09:13:39.783Z,20.90
2018-03-22T09:18:42.324Z,22.30
2018-03-22T09:23:44.831Z,23.53
2018-03-22T09:28:47.413Z,23.30
2018-03-22T09:33:50.063Z,28.50
2018-03-22T09:38:52.544Z,27.33
2018-03-22T09:43:55.039Z,33.30
2018-03-22T09:48:57.520Z,30.03
2018-03-22T09:53:59.975Z,31.83
2018-03-22T09:59:02.446Z,30.80
2018-03-22T10:04:04.937Z,31.03
2018-03-22T10:09:08.256Z,34.07
2018-03-22T10:14:10.753Z,31.67
2018-03-22T10:19:13.252Z,31.20
2018-03-22T10:24:16.395Z,32.33
2018-03-22T10:29:18.967Z,32.00
2018-03-22T10:34:21.439Z,32.63
2018-03-22T10:39:24.719Z,34.33
2018-03-22T10:44:27.190Z,34.20
2018-03-22T10:49:29.645Z,32.63
2018-03-22T10:54:32.088Z,34.37
2018-03-22T10:59:34.717Z,35.00
2018-03-22T11:04:37.214Z,36.10
2018-03-22T11:09:39.921Z,34.17
2018-03-22T11:14:42.400Z,33.97
2018-03-22T11:19:44.941Z,33.00
2018-03-22T11:24:47.536Z,32.33
2018-03-22T11:29:50.237Z,33.87
2018-03-22T11:34:52.749Z,31.50
2018-03-22T11:39:55.214Z,33.13
2018-03-22T11:44:57.690Z,32.90
2018-03-22T11:50:00.157Z,33.37
2018-03-22T11:55:02.638Z,35.87
2018-03-22T12:00:05.524Z,34.10
2018-03-22T12:05:08.445Z,30.77
2018-03-22T12:10:11.421Z,28.67
2018-03-22T12:15:16.954Z,30.47
2018-03-22T12:20:22.272Z,30.77
2018-03-22T12:25:24.792Z,30.73
2018-03-22T12:30:27.260Z,29.47
2018-03-22T12:35:29.977Z,28.53
2018-03-22T12:40:32.467Z,31.23
2018-03-22T12:45:34.958Z,28.10
2018-03-22T12:50:37.641Z,28.63
2018-03-22T12:55:40.346Z,29.83
2018-03-22T13:00:44.567Z,26.47
2018-03-22T13:05:47.090Z,27.77
2018-03-22T13:10:49.587Z,27.30
2018-03-22T13:15:52.684Z,27.53
2018-03-22T13:20:55.207Z,26.30
2018-03-22T13:25:57.683Z,27.60
2018-03-22T13:31:00.146Z,25.00
2018-03-22T13:36:02.624Z,24.53
2018-03-22T13:41:05.175Z,26.37
2018-03-22T13:46:07.690Z,26.87
2018-03-22T13:51:10.161Z,26.63
2018-03-22T13:56:12.633Z,27.33
2018-03-22T14:01:15.492Z,25.50
2018-03-22T14:06:18.059Z,27.43
2018-03-22T14:11:20.550Z,27.07
2018-03-22T14:16:23.805Z,26.13
2018-03-22T14:21:26.515Z,26.93
2018-03-22T14:26:28.996Z,26.17
2018-03-22T14:31:36.423Z,26.43
2018-03-22T14:36:39.141Z,23.63
2018-03-22T14:41:41.763Z,27.37
2018-03-22T14:46:45.025Z,25.10
2018-03-22T14:51:47.690Z,27.63
2018-03-22T14:56:50.219Z,26.07
2018-03-22T15:01:54.776Z,23.87
2018-03-22T15:06:58.502Z,23.97
2018-03-22T15:12:03.794Z,26.63
2018-03-22T15:17:09.310Z,25.77
2018-03-22T15:22:12.108Z,26.20
2018-03-22T15:27:14.904Z,27.57
2018-03-22T15:32:17.484Z,26.73
2018-03-22T15:37:20.003Z,25.87
2018-03-22T15:42:22.978Z,24.77
2018-03-22T15:47:25.445Z,24.40
2018-03-22T15:52:28.075Z,25.70
2018-03-22T15:57:31.118Z,25.27
2018-03-22T16:02:33.657Z,26.87
2018-03-22T16:07:36.171Z,27.33
2018-03-22T16:12:40.975Z,27.60
2018-03-22T16:17:47.619Z,30.30
2018-03-22T16:22:52.715Z,29.70
2018-03-22T16:27:56.998Z,28.57
2018-03-22T16:33:01.961Z,28.03
2018-03-22T16:38:07.271Z,27.80
2018-03-22T16:43:10.807Z,28.17
2018-03-22T16:48:15.371Z,27.50
2018-03-22T16:53:19.280Z,27.03
2018-03-22T16:58:24.307Z,27.37
2018-03-22T17:03:28.375Z,30.10
2018-03-22T17:08:33.162Z,30.37
2018-03-22T17:13:38.812Z,29.67
2018-03-22T17:18:41.946Z,30.50
2018-03-22T17:23:44.811Z,32.60
2018-03-22T17:28:47.344Z,31.90
2018-03-22T17:33:49.910Z,32.80
2018-03-22T17:38:52.432Z,34.77
2018-03-22T17:43:54.941Z,35.80
2018-03-22T17:48:57.466Z,33.20
2018-03-22T17:53:59.915Z,32.43
2018-03-22T17:59:02.435Z,33.90
2018-03-22T18:04:04.911Z,31.20
2018-03-22T18:09:08.496Z,32.30
2018-03-22T18:14:11.344Z,34.30
2018-03-22T18:19:14.117Z,30.57
2018-03-22T18:24:17.172Z,29.57
2018-03-22T18:29:20.162Z,32.20
2018-03-22T18:34:22.644Z,33.30
2018-03-22T18:39:25.133Z,30.53
2018-03-22T18:44:27.653Z,28.37
2018-03-22T18:49:30.134Z,28.57
2018-03-22T18:54:32.700Z,29.70
2018-03-22T18:59:39.148Z,27.67
2018-03-22T19:04:41.897Z,32.00
2018-03-22T19:09:45.322Z,30.63
2018-03-22T19:14:48.948Z,32.90
2018-03-22T19:19:51.728Z,29.93
2018-03-22T19:24:54.217Z,30.27
2018-03-22T19:29:56.735Z,30.07
2018-03-22T19:34:59.207Z,32.80
2018-03-22T19:40:01.716Z,32.87
2018-03-22T19:45:04.219Z,29.90
2018-03-22T19:50:06.717Z,33.17
2018-03-22T19:55:09.458Z,32.23
2018-03-22T20:00:11.949Z,34.70
2018-03-22T20:05:14.471Z,31.77
2018-03-22T20:10:19.023Z,31.00
2018-03-22T20:15:27.660Z,29.00
2018-03-22T20:20:35.205Z,30.43
2018-03-22T20:25:43.309Z,30.77
2018-03-22T20:30:52.322Z,30.83
2018-03-22T20:35:58.969Z,30.23
2018-03-22T20:41:03.607Z,30.20
2018-03-22T20:46:07.926Z,31.10
2018-03-22T20:51:12.762Z,29.40
2018-03-22T20:56:17.070Z,30.57
2018-03-22T21:01:22.680Z,30.80
2018-03-22T21:06:28.785Z,32.00
2018-03-22T21:11:33.098Z,34.40
2018-03-22T21:16:37.024Z,32.87
2018-03-22T21:21:45.165Z,29.83
2018-03-22T21:26:50.025Z,31.27
2018-03-22T21:31:52.924Z,32.17
2018-03-22T21:36:55.404Z,32.03
2018-03-22T21:42:06.460Z,33.43
2018-03-22T21:47:20.805Z,33.37
2018-03-22T21:52:35.365Z,33.77
2018-03-22T21:57:37.856Z,32.23
2018-03-22T22:02:40.372Z,30.90
2018-03-22T22:07:42.866Z,32.57
2018-03-22T22:12:45.419Z,32.87
2018-03-22T22:17:48.018Z,33.17
2018-03-22T22:22:50.547Z,32.30
2018-03-22T22:27:53.070Z,32.20
2018-03-22T22:32:55.565Z,29.83
2018-03-22T22:37:58.025Z,32.77
2018-03-22T22:43:01.120Z,33.17
2018-03-22T22:48:03.605Z,31.83
2018-03-22T22:53:06.118Z,32.60
2018-03-22T22:58:08.592Z,33.87
2018-03-22T23:03:11.098Z,34.97
2018-03-22T23:08:13.652Z,32.73
2018-03-22T23:13:16.161Z,35.03
2018-03-22T23:18:18.663Z,34.90
2018-03-22T23:23:21.174Z,30.27
2018-03-22T23:28:23.688Z,31.53
2018-03-22T23:33:26.138Z,31.20
2018-03-22T23:38:29.029Z,28.30
2018-03-22T23:43:31.583Z,26.07
2018-03-22T23:48:34.040Z,27.97
2018-03-22T23:53:37.498Z,27.53
2018-03-22T23:58:39.962Z,26.40
